createdAt,value
2022-10-29T00:00:43.629Z,97323.78
2022-10-29T00:03:10.418Z,97336.28
2022-10-29T00:05:37.080Z,97293.75
2022-10-29T00:08:03.861Z,97283.63
2022-10-29T00:10:30.497Z,97260.88
2022-10-29T00:13:02.400Z,97261.06
2022-10-29T00:15:29.360Z,97288.72
2022-10-29T00:17:56.421Z,97291.69
2022-10-29T00:20:24.045Z,97297.47
2022-10-29T00:22:54.324Z,97270.81
2022-10-29T00:25:21.210Z,97246.47
2022-10-29T00:27:47.773Z,97255.88
2022-10-29T00:30:14.425Z,97217.03
2022-10-29T00:32:41.211Z,97215.38
2022-10-29T00:35:08.100Z,97229.81
2022-10-29T00:37:36.218Z,97196.72
2022-10-29T00:40:06.776Z,97219.25
2022-10-29T00:42:33.426Z,97232.56
2022-10-29T00:45:00.000Z,97232.38
2022-10-29T00:47:30.314Z,97249.28
2022-10-29T00:50:02.652Z,97230.03
2022-10-29T00:52:32.550Z,97228.94
2022-10-29T00:55:02.045Z,97245.97
2022-10-29T00:57:36.944Z,97267.72
2022-10-29T01:00:04.329Z,97262.34
2022-10-29T01:02:33.483Z,97279.78
2022-10-29T01:05:01.854Z,97214.38
2022-10-29T01:07:29.028Z,97239.19
2022-10-29T01:09:56.147Z,97214.94
2022-10-29T01:12:34.944Z,97217.19
2022-10-29T01:15:13.110Z,97222.03
2022-10-29T01:17:54.224Z,97181.56
2022-10-29T01:20:39.171Z,97217.56
2022-10-29T01:23:39.951Z,97199.59
2022-10-29T01:26:49.125Z,97187.38
2022-10-29T01:29:30.684Z,97220.63
2022-10-29T01:32:56.529Z,97252.22
2022-10-29T01:35:38.470Z,97160.91
2022-10-29T01:38:14.108Z,97164.19
2022-10-29T01:40:47.492Z,97159.47
2022-10-29T01:43:14.061Z,97209.06
2022-10-29T01:45:48.097Z,97199.50
2022-10-29T01:48:20.002Z,97181.53
2022-10-29T01:50:51.059Z,97236.75
2022-10-29T01:53:18.183Z,97228.16
2022-10-29T01:55:44.724Z,97176.03
2022-10-29T01:58:12.336Z,97140.63
2022-10-29T02:01:03.901Z,97149.13
2022-10-29T02:03:39.053Z,97129.75
2022-10-29T02:06:14.649Z,97149.72
2022-10-29T02:09:07.391Z,97195.31
2022-10-29T02:11:43.085Z,97186.97
2022-10-29T02:14:20.865Z,97146.13
2022-10-29T02:16:48.396Z,97154.88
2022-10-29T02:19:15.154Z,97137.78
2022-10-29T02:21:42.594Z,97138.00
2022-10-29T02:24:09.251Z,97124.78
2022-10-29T02:26:35.952Z,97101.41
2022-10-29T02:29:02.715Z,97105.31
2022-10-29T02:31:29.980Z,97102.44
2022-10-29T02:33:56.558Z,97093.41
2022-10-29T02:36:23.193Z,97114.41
2022-10-29T02:38:49.724Z,97062.59
2022-10-29T02:41:16.284Z,97070.03
2022-10-29T02:43:42.816Z,97083.69
2022-10-29T02:46:23.131Z,97075.47
2022-10-29T02:48:49.938Z,97062.69
2022-10-29T02:51:17.443Z,97039.38
2022-10-29T02:53:44.654Z,96983.97
2022-10-29T02:56:11.742Z,96995.94
2022-10-29T02:58:38.405Z,97025.47
2022-10-29T03:01:05.324Z,96991.94
2022-10-29T03:03:32.099Z,96994.56
2022-10-29T03:05:58.736Z,97012.41
2022-10-29T03:08:25.328Z,97021.97
2022-10-29T03:10:51.976Z,97093.91
2022-10-29T03:13:18.787Z,97064.13
2022-10-29T03:15:45.970Z,97013.91
2022-10-29T03:18:12.697Z,97006.09
2022-10-29T03:20:39.472Z,96978.16
2022-10-29T03:23:06.178Z,96979.25
2022-10-29T03:25:32.952Z,97019.66
2022-10-29T03:27:59.679Z,97040.75
2022-10-29T03:30:26.211Z,97005.41
2022-10-29T03:32:52.855Z,96967.25
2022-10-29T03:35:19.527Z,96959.69
2022-10-29T03:37:49.656Z,96957.44
2022-10-29T03:40:17.182Z,96957.44
2022-10-29T03:42:43.781Z,96888.59
2022-10-29T03:45:11.000Z,96986.09
2022-10-29T03:47:37.672Z,96931.09
2022-10-29T03:50:04.819Z,96946.09
2022-10-29T03:52:31.444Z,96912.88
2022-10-29T03:54:58.012Z,96998.69
2022-10-29T03:57:24.549Z,97001.72
2022-10-29T03:59:52.640Z,97007.19
2022-10-29T04:02:20.097Z,97005.09
2022-10-29T04:04:46.829Z,97035.84
2022-10-29T04:07:13.880Z,97012.13
2022-10-29T04:09:40.484Z,96999.09
2022-10-29T04:12:07.760Z,96979.81
2022-10-29T04:14:34.569Z,96993.69
2022-10-29T04:17:01.242Z,97014.22
2022-10-29T04:19:27.824Z,97024.03
2022-10-29T04:30:15.403Z,97007.13
2022-10-29T04:32:42.017Z,96996.69
2022-10-29T04:35:08.731Z,96974.28
2022-10-29T04:37:35.330Z,96933.94
2022-10-29T04:40:01.957Z,96928.16
2022-10-29T04:42:28.537Z,97023.06
2022-10-29T04:44:55.103Z,96877.50
2022-10-29T04:47:21.669Z,96939.78
2022-10-29T04:49:48.305Z,96953.28
2022-10-29T04:52:14.845Z,96934.84
2022-10-29T04:54:41.397Z,96919.31
2022-10-29T04:57:07.923Z,96916.06
2022-10-29T04:59:34.471Z,96971.31
2022-10-29T05:02:01.014Z,97011.63
2022-10-29T05:04:29.532Z,97012.28
2022-10-29T05:06:56.196Z,96968.44
2022-10-29T05:09:22.774Z,97047.22
2022-10-29T05:11:49.320Z,97107.44
2022-10-29T05:14:15.905Z,97042.19
2022-10-29T05:16:42.474Z,96952.38
2022-10-29T05:19:09.189Z,96901.22
2022-10-29T05:21:35.993Z,96938.22
2022-10-29T05:24:02.536Z,96938.22
2022-10-29T05:26:31.788Z,96952.38
2022-10-29T05:28:58.419Z,96883.72
2022-10-29T05:31:24.966Z,96870.66
2022-10-29T05:33:53.949Z,96904.72
2022-10-29T05:36:22.475Z,96933.50
2022-10-29T05:38:49.078Z,96886.78
2022-10-29T05:41:15.845Z,96947.56
2022-10-29T05:43:42.461Z,96900.16
2022-10-29T05:46:09.025Z,96874.59
2022-10-29T05:48:35.683Z,96963.09
2022-10-29T05:51:02.307Z,96930.09
2022-10-29T05:53:28.915Z,96865.97
2022-10-29T05:55:55.560Z,96838.75
2022-10-29T05:58:22.104Z,96868.19
2022-10-29T06:00:48.660Z,96903.91
2022-10-29T06:03:20.563Z,96867.88
2022-10-29T06:05:48.447Z,96842.72
2022-10-29T06:08:15.477Z,96857.53
2022-10-29T06:10:42.014Z,96809.38
2022-10-29T06:13:19.977Z,96834.19
2022-10-29T06:15:47.934Z,96858.94
2022-10-29T06:18:15.832Z,96869.81
2022-10-29T06:20:43.762Z,96860.78
2022-10-29T06:23:11.186Z,96851.34
2022-10-29T06:25:37.786Z,96809.78
2022-10-29T06:28:07.386Z,96858.59
2022-10-29T06:30:35.412Z,96905.16
2022-10-29T06:33:03.222Z,96862.63
2022-10-29T06:35:30.194Z,96889.16
2022-10-29T06:37:57.257Z,96918.59
2022-10-29T06:40:23.956Z,97139.78
2022-10-29T06:42:50.598Z,96909.88
2022-10-29T06:45:17.288Z,96917.06
2022-10-29T06:47:45.347Z,96906.81
2022-10-29T06:50:13.927Z,96928.97
2022-10-29T06:52:40.462Z,96974.81
2022-10-29T06:55:08.422Z,96931.13
2022-10-29T06:57:36.377Z,96950.16
2022-10-29T07:00:07.526Z,96948.81
2022-10-29T07:02:35.486Z,96953.72
2022-10-29T07:05:02.071Z,96913.97
2022-10-29T07:07:29.146Z,96867.84
2022-10-29T07:09:55.904Z,96885.44
2022-10-29T07:12:22.441Z,96900.09
2022-10-29T07:14:49.057Z,96875.91
2022-10-29T07:17:15.592Z,96882.31
2022-10-29T07:19:42.119Z,96870.00
2022-10-29T07:22:08.679Z,96920.06
2022-10-29T07:24:35.219Z,96895.56
2022-10-29T07:27:02.080Z,96889.66
2022-10-29T07:29:28.720Z,96909.13
2022-10-29T07:31:55.256Z,96914.75
2022-10-29T07:34:21.769Z,96822.66
2022-10-29T07:36:48.311Z,96803.25
2022-10-29T07:39:14.873Z,96818.59
2022-10-29T07:41:41.418Z,96816.75
2022-10-29T07:44:07.988Z,96880.88
2022-10-29T07:46:34.539Z,96816.75
2022-10-29T07:49:01.077Z,96839.47
2022-10-29T07:51:27.852Z,96851.53
2022-10-29T07:53:54.395Z,96890.81
2022-10-29T07:56:20.923Z,96879.84
2022-10-29T07:58:47.526Z,96919.63
2022-10-29T08:01:14.259Z,96970.47
2022-10-29T08:03:40.937Z,96918.31
2022-10-29T08:06:07.786Z,96915.81
2022-10-29T08:08:35.017Z,96930.94
2022-10-29T08:11:03.078Z,96976.91
2022-10-29T08:13:30.241Z,96938.97
2022-10-29T08:15:57.123Z,96952.50
2022-10-29T08:18:23.674Z,96985.94
2022-10-29T08:20:50.260Z,96960.25
2022-10-29T08:23:16.849Z,96980.16
2022-10-29T08:25:43.715Z,96967.22
2022-10-29T08:28:14.775Z,97010.28
2022-10-29T08:30:42.155Z,97023.91
2022-10-29T08:33:09.618Z,96969.69
2022-10-29T08:35:36.408Z,96951.50
2022-10-29T08:38:02.963Z,96935.81
2022-10-29T08:40:47.849Z,96957.34
2022-10-29T08:43:32.319Z,96966.44
2022-10-29T08:45:59.095Z,96974.44
2022-10-29T08:48:28.458Z,96990.94
2022-10-29T08:51:16.900Z,96976.19
2022-10-29T08:53:58.923Z,97002.84
2022-10-29T08:56:38.867Z,97057.66
2022-10-29T08:59:11.613Z,97067.25
2022-10-29T09:01:38.526Z,97056.56
2022-10-29T09:04:24.424Z,97059.31
2022-10-29T09:07:28.742Z,97066.81
2022-10-29T09:10:16.779Z,97073.84
2022-10-29T09:13:10.498Z,97084.56
2022-10-29T09:15:56.364Z,97066.97
2022-10-29T09:19:12.204Z,97069.78
2022-10-29T09:21:57.845Z,97065.56
2022-10-29T09:24:43.142Z,97071.34
2022-10-29T09:27:16.917Z,97062.00
2022-10-29T09:29:52.261Z,97060.44
2022-10-29T09:32:26.718Z,97044.81
2022-10-29T09:35:00.355Z,97043.59
2022-10-29T09:37:54.924Z,97046.75
2022-10-29T09:40:38.283Z,97077.47
2022-10-29T09:43:33.548Z,97062.28
2022-10-29T09:46:34.449Z,97056.34
2022-10-29T09:49:08.706Z,97080.72
2022-10-29T09:51:51.251Z,97106.53
2022-10-29T09:54:18.195Z,97112.31
2022-10-29T09:56:50.442Z,97126.91
2022-10-29T09:59:35.177Z,97117.75
2022-10-29T10:02:01.907Z,97132.34
2022-10-29T10:04:34.432Z,97133.13
2022-10-29T10:07:07.235Z,97119.44
2022-10-29T10:09:55.530Z,97132.56
2022-10-29T10:12:25.067Z,97141.56
2022-10-29T10:15:22.544Z,97142.53
2022-10-29T10:18:02.920Z,97124.66
2022-10-29T10:20:45.630Z,97129.47
2022-10-29T10:23:24.214Z,97123.09
2022-10-29T10:25:53.375Z,97135.47
2022-10-29T10:28:25.289Z,97134.66
2022-10-29T10:31:03.763Z,97124.50
2022-10-29T10:33:32.689Z,97122.25
2022-10-29T10:36:05.686Z,97106.56
2022-10-29T10:38:47.794Z,97114.38
2022-10-29T10:41:16.375Z,97124.53
2022-10-29T10:43:45.568Z,97107.41
2022-10-29T10:46:27.961Z,97089.91
2022-10-29T10:49:12.013Z,97102.81
2022-10-29T10:51:42.778Z,97178.78
2022-10-29T10:54:31.956Z,97165.00
2022-10-29T10:57:04.791Z,97152.28
2022-10-29T10:59:51.029Z,97174.84
2022-10-29T11:02:55.329Z,97167.16
2022-10-29T11:05:31.663Z,97167.53
2022-10-29T11:08:17.387Z,97179.56
2022-10-29T11:10:50.152Z,97207.41
2022-10-29T11:13:21.788Z,97210.88
2022-10-29T11:15:57.199Z,97238.00
2022-10-29T11:18:41.811Z,97233.50
2022-10-29T11:21:15.428Z,97247.81
2022-10-29T11:23:52.122Z,97238.16
2022-10-29T11:26:46.807Z,97256.31
2022-10-29T11:29:32.049Z,97256.69
2022-10-29T11:32:57.382Z,97263.31
2022-10-29T11:35:31.345Z,97272.78
2022-10-29T11:38:10.212Z,97259.03
2022-10-29T11:41:05.071Z,97264.38
2022-10-29T11:43:33.194Z,97282.28
2022-10-29T11:46:11.858Z,97273.38
2022-10-29T11:48:59.619Z,97244.78
2022-10-29T11:51:35.481Z,97280.41
2022-10-29T11:54:18.833Z,97330.47
2022-10-29T11:56:59.134Z,97325.97
2022-10-29T11:59:31.494Z,97302.56
2022-10-29T12:02:26.654Z,97280.81
2022-10-29T12:05:04.742Z,97306.72
2022-10-29T12:07:46.140Z,97289.84
2022-10-29T12:10:35.626Z,97304.22
2022-10-29T12:13:20.275Z,97309.81
2022-10-29T12:16:16.099Z,97287.28
2022-10-29T12:19:07.429Z,97292.34
2022-10-29T12:22:01.739Z,97288.97
2022-10-29T12:24:46.436Z,97279.31
2022-10-29T12:27:27.776Z,97280.09
2022-10-29T12:30:03.056Z,97298.94
2022-10-29T12:32:39.065Z,97337.41
2022-10-29T12:35:17.678Z,97337.22
2022-10-29T12:38:07.318Z,97341.91
2022-10-29T12:40:35.297Z,97396.09
2022-10-29T12:43:07.445Z,97387.28
2022-10-29T12:45:48.083Z,97441.78
2022-10-29T12:48:56.412Z,97396.31
2022-10-29T12:51:54.935Z,97429.47
2022-10-29T12:54:30.828Z,97400.78
2022-10-29T12:57:19.906Z,97405.63
2022-10-29T12:59:46.539Z,97442.09
2022-10-29T13:02:25.465Z,97479.84
2022-10-29T13:05:27.617Z,97434.63
2022-10-29T13:07:57.073Z,97383.44
2022-10-29T13:10:35.534Z,97406.75
2022-10-29T13:13:23.755Z,97371.78
2022-10-29T13:16:00.709Z,97353.00
2022-10-29T13:18:41.737Z,97374.72
2022-10-29T13:21:08.944Z,97369.13
2022-10-29T13:23:37.661Z,97351.06
2022-10-29T13:26:06.417Z,97366.16
2022-10-29T13:28:35.999Z,97361.22
2022-10-29T13:31:08.334Z,97371.63
2022-10-29T13:33:37.887Z,97376.09
2022-10-29T13:36:27.738Z,97369.00
2022-10-29T13:39:08.940Z,97369.03
2022-10-29T13:41:44.326Z,97347.50
2022-10-29T13:44:12.897Z,97302.78
2022-10-29T13:47:01.712Z,97353.97
2022-10-29T13:49:33.058Z,97354.75
2022-10-29T13:52:01.239Z,97293.75
2022-10-29T13:54:35.397Z,97386.69
2022-10-29T13:57:20.479Z,97421.00
2022-10-29T13:59:57.467Z,97435.91
2022-10-29T14:02:48.247Z,97399.78
2022-10-29T14:05:21.671Z,97389.25
2022-10-29T14:07:51.954Z,97392.63
2022-10-29T14:10:24.125Z,97356.50
2022-10-29T14:13:12.546Z,97408.44
2022-10-29T14:15:39.986Z,97377.94
2022-10-29T14:18:23.662Z,97382.78
2022-10-29T14:20:58.081Z,97369.22
2022-10-29T14:23:25.813Z,97348.53
2022-10-29T14:25:54.905Z,97346.31
2022-10-29T14:28:31.697Z,97337.22
2022-10-29T14:31:05.717Z,97380.78
2022-10-29T14:33:35.109Z,97350.31
2022-10-29T14:36:37.181Z,97344.63
2022-10-29T14:39:19.165Z,97356.28
2022-10-29T14:41:47.544Z,97352.81
2022-10-29T14:44:41.156Z,97362.53
2022-10-29T14:47:18.609Z,97358.03
2022-10-29T14:49:48.297Z,97335.00
2022-10-29T14:52:33.710Z,97341.47
2022-10-29T14:55:07.477Z,97285.69
2022-10-29T14:57:38.858Z,97269.53
2022-10-29T15:00:07.178Z,97271.34
2022-10-29T15:02:39.005Z,97246.84
2022-10-29T15:05:21.169Z,97282.16
2022-10-29T15:07:48.697Z,97238.13
2022-10-29T15:10:37.974Z,97203.16
2022-10-29T15:13:20.424Z,97194.47
2022-10-29T15:16:01.037Z,97182.00
2022-10-29T15:18:28.850Z,97194.41
2022-10-29T15:20:56.521Z,97175.59
2022-10-29T15:23:44.993Z,97186.47
2022-10-29T15:26:17.395Z,97209.38
2022-10-29T15:28:46.035Z,97210.06
2022-10-29T15:31:34.620Z,97219.09
2022-10-29T15:34:10.236Z,97234.88
2022-10-29T15:36:45.861Z,97196.06
2022-10-29T15:39:20.037Z,97173.38
2022-10-29T15:41:50.768Z,97156.00
2022-10-29T15:44:39.744Z,97131.13
2022-10-29T15:47:27.034Z,97128.81
2022-10-29T15:49:53.881Z,97124.22
2022-10-29T15:52:23.464Z,97109.38
2022-10-29T15:54:50.291Z,97075.84
2022-10-29T15:57:17.907Z,97082.97
2022-10-29T15:59:44.536Z,97089.63
2022-10-29T16:02:12.929Z,97055.75
2022-10-29T16:04:39.847Z,97024.81
2022-10-29T16:07:10.422Z,97007.03
2022-10-29T16:09:37.299Z,97014.19
2022-10-29T16:12:04.057Z,97008.50
2022-10-29T16:14:30.706Z,96996.94
2022-10-29T16:16:57.384Z,96991.63
2022-10-29T16:19:23.989Z,96998.00
2022-10-29T16:21:50.612Z,97017.25
2022-10-29T16:24:17.285Z,97027.63
2022-10-29T16:26:43.977Z,97008.78
2022-10-29T16:29:10.790Z,97022.53
2022-10-29T16:31:37.612Z,97015.88
2022-10-29T16:34:06.097Z,97013.91
2022-10-29T16:36:33.085Z,96987.94
2022-10-29T16:38:59.709Z,96978.88
2022-10-29T16:41:26.318Z,96986.66
2022-10-29T16:43:53.052Z,96972.00
2022-10-29T16:46:19.605Z,96983.06
2022-10-29T16:48:46.587Z,96995.03
2022-10-29T16:51:13.381Z,96999.97
2022-10-29T16:53:39.984Z,96996.06
2022-10-29T16:56:06.899Z,96983.25
2022-10-29T16:58:33.565Z,96962.19
2022-10-29T17:01:07.894Z,96952.81
2022-10-29T17:03:35.407Z,96954.25
2022-10-29T17:06:07.530Z,96949.13
2022-10-29T17:08:35.063Z,96947.94
2022-10-29T17:11:02.781Z,96940.19
2022-10-29T17:13:32.404Z,96954.25
2022-10-29T17:15:58.940Z,96919.69
2022-10-29T17:18:25.541Z,96944.72
2022-10-29T17:20:56.620Z,96904.59
2022-10-29T17:23:23.445Z,96888.84
2022-10-29T17:25:57.720Z,96890.03
2022-10-29T17:28:25.958Z,96865.66
2022-10-29T17:30:52.862Z,96856.44
2022-10-29T17:33:19.777Z,96850.81
2022-10-29T17:35:46.432Z,96860.31
2022-10-29T17:38:13.148Z,96847.78
2022-10-29T17:40:39.890Z,96839.13
2022-10-29T17:43:06.591Z,96844.13
2022-10-29T17:45:33.238Z,96830.44
2022-10-29T17:48:00.325Z,96807.53
2022-10-29T17:50:27.436Z,96834.03
2022-10-29T17:52:54.894Z,96802.84
2022-10-29T17:55:21.466Z,96772.78
2022-10-29T17:57:48.067Z,96781.69
2022-10-29T18:00:15.104Z,96771.53
2022-10-29T18:02:41.824Z,96784.22
2022-10-29T18:05:08.621Z,96762.31
2022-10-29T18:07:35.192Z,96751.88
2022-10-29T18:10:01.750Z,96782.59
2022-10-29T18:12:28.382Z,96783.56
2022-10-29T18:14:55.086Z,96766.53
2022-10-29T18:17:21.662Z,96756.72
2022-10-29T18:19:48.237Z,96741.75
2022-10-29T18:22:14.930Z,96748.59
2022-10-29T18:24:41.510Z,96747.19
2022-10-29T18:27:08.096Z,96756.50
2022-10-29T18:29:34.718Z,96748.69
2022-10-29T18:32:01.286Z,96744.72
2022-10-29T18:34:27.922Z,96759.91
2022-10-29T18:36:54.591Z,96730.06
2022-10-29T18:39:21.108Z,96700.19
2022-10-29T18:41:47.705Z,96724.16
2022-10-29T18:44:14.261Z,96738.22
2022-10-29T18:46:40.812Z,96724.19
2022-10-29T18:49:09.159Z,96752.13
2022-10-29T18:51:35.767Z,96744.25
2022-10-29T18:54:02.335Z,96743.34
2022-10-29T18:56:29.841Z,96725.53
2022-10-29T18:58:57.564Z,96720.25
2022-10-29T19:01:27.541Z,96736.47
2022-10-29T19:03:56.396Z,96727.44
2022-10-29T19:06:24.959Z,96752.34
2022-10-29T19:08:51.989Z,96791.16
2022-10-29T19:11:21.670Z,96755.53
2022-10-29T19:13:55.283Z,96777.88
2022-10-29T19:16:22.339Z,96783.84
2022-10-29T19:18:55.029Z,96787.09
2022-10-29T19:21:21.726Z,96797.19
2022-10-29T19:23:48.318Z,96773.63
2022-10-29T19:26:17.984Z,96748.94
2022-10-29T19:28:46.559Z,96752.06
2022-10-29T19:31:18.282Z,96757.47
2022-10-29T19:33:49.345Z,96813.41
2022-10-29T19:36:16.617Z,96868.63
2022-10-29T19:38:43.317Z,96782.56
2022-10-29T19:41:12.345Z,96765.16
2022-10-29T19:43:39.969Z,96790.69
2022-10-29T19:46:08.731Z,96730.41
2022-10-29T19:48:35.844Z,96794.03
2022-10-29T19:51:02.464Z,96782.94
2022-10-29T19:53:30.523Z,96790.59
2022-10-29T19:55:57.541Z,96793.88
2022-10-29T19:58:26.896Z,96795.06
2022-10-29T20:00:54.291Z,96800.78
2022-10-29T20:03:21.237Z,96783.63
2022-10-29T20:05:47.892Z,96735.00
2022-10-29T20:08:16.320Z,96742.78
2022-10-29T20:10:43.479Z,96724.25
2022-10-29T20:13:10.414Z,96733.84
2022-10-29T20:15:39.786Z,96755.16
2022-10-29T20:18:06.341Z,96764.78
2022-10-29T20:20:32.991Z,96774.91
2022-10-29T20:23:00.319Z,96740.06
2022-10-29T20:25:27.657Z,96764.78
2022-10-29T20:27:54.285Z,96791.56
2022-10-29T20:30:24.086Z,96761.91
2022-10-29T20:32:51.100Z,96685.13
2022-10-29T20:35:36.157Z,96685.88
2022-10-29T20:38:11.317Z,96694.69
2022-10-29T20:40:38.034Z,96712.13
2022-10-29T20:43:04.609Z,96661.59
2022-10-29T20:45:31.167Z,96676.44
2022-10-29T20:47:58.013Z,96631.75
2022-10-29T20:50:24.887Z,96623.47
2022-10-29T20:52:51.748Z,96617.06
2022-10-29T20:55:18.362Z,96643.84
2022-10-29T20:57:44.948Z,96631.50
2022-10-29T21:00:11.907Z,96658.44
2022-10-29T21:02:38.547Z,96652.09
2022-10-29T21:05:05.404Z,96681.75
2022-10-29T21:07:32.154Z,96724.53
2022-10-29T21:09:58.694Z,96748.41
2022-10-29T21:12:25.264Z,96697.25
2022-10-29T21:14:52.027Z,96691.94
2022-10-29T21:17:18.756Z,96679.41
2022-10-29T21:19:45.298Z,96693.88
2022-10-29T21:22:14.917Z,96687.13
2022-10-29T21:24:44.603Z,96649.59
2022-10-29T21:27:12.419Z,96689.66
2022-10-29T21:29:38.984Z,96663.91
2022-10-29T21:32:05.716Z,96661.25
2022-10-29T21:34:32.361Z,96713.03
2022-10-29T21:36:58.906Z,96657.97
2022-10-29T21:39:26.466Z,96636.78
2022-10-29T21:41:53.143Z,96683.72
2022-10-29T21:44:19.683Z,96661.88
2022-10-29T21:46:46.376Z,96647.41
2022-10-29T21:49:12.936Z,96673.66
2022-10-29T21:51:39.691Z,96685.75
2022-10-29T21:54:06.238Z,96653.56
2022-10-29T21:56:32.833Z,96669.94
2022-10-29T21:58:59.495Z,96656.13
2022-10-29T22:01:26.115Z,96653.50
2022-10-29T22:03:52.891Z,96699.00
2022-10-29T22:06:21.706Z,96693.75
2022-10-29T22:08:53.629Z,96691.56
2022-10-29T22:11:20.357Z,96651.47
2022-10-29T22:13:46.941Z,96670.72
2022-10-29T22:16:13.844Z,96683.03
2022-10-29T22:18:40.672Z,96658.03
2022-10-29T22:21:10.103Z,96652.44
2022-10-29T22:23:41.051Z,96652.09
2022-10-29T22:26:08.212Z,96650.44
2022-10-29T22:28:34.776Z,96659.53
2022-10-29T22:31:03.300Z,96661.13
2022-10-29T22:33:31.803Z,96702.53
2022-10-29T22:36:06.571Z,96721.78
2022-10-29T22:38:33.159Z,96697.78
2022-10-29T22:41:14.263Z,96703.72
2022-10-29T22:43:41.030Z,96684.66
2022-10-29T22:46:09.056Z,96674.97
2022-10-29T22:48:35.851Z,96667.84
2022-10-29T22:51:05.230Z,96690.41
2022-10-29T22:53:32.182Z,96652.34
2022-10-29T22:55:59.683Z,96657.78
2022-10-29T22:58:26.370Z,96699.47
2022-10-29T23:01:26.783Z,96717.31
2022-10-29T23:03:53.723Z,96642.63
2022-10-29T23:06:22.001Z,96647.84
2022-10-29T23:08:51.509Z,96634.03
2022-10-29T23:11:20.667Z,96622.13
2022-10-29T23:13:48.585Z,96604.94
2022-10-29T23:16:15.779Z,96603.59
2022-10-29T23:18:42.389Z,96596.88
2022-10-29T23:21:09.509Z,96595.13
2022-10-29T23:23:36.515Z,96589.47
2022-10-29T23:26:04.228Z,96591.69
2022-10-29T23:28:39.258Z,96613.88
2022-10-29T23:31:09.823Z,96623.06
2022-10-29T23:33:36.609Z,96630.47
2022-10-29T23:36:04.478Z,96630.22
2022-10-29T23:38:31.652Z,96655.22
2022-10-29T23:40:58.412Z,96692.03
2022-10-29T23:43:24.957Z,96687.06
2022-10-29T23:45:51.553Z,96676.47
2022-10-29T23:48:18.404Z,96677.91
2022-10-29T23:50:45.690Z,96672.59
2022-10-29T23:53:12.544Z,96663.13
2022-10-29T23:55:39.148Z,96666.25
2022-10-29T23:58:05.694Z,96674.53
